Terminal Aerodrome Forecast
Issued by NWS

Home | Current Version | Previous Version | Text Only | Print | Product List | Glossary On
Versions: 1 2 3 4 5 6 7 8 9 10 11 12 13 14 15 16
000
FTUS46 KSEW 241340 AAA
TAFBLI
TAF AMD
KBLI 241340Z 2414/2512 15012KT P6SM VCSH BKN015 OVC025
      TEMPO 2414/2416 2SM -SHSN BR OVC005
     FM241800 18010KT P6SM -SHRA BKN025
     FM242100 20007KT P6SM VCSH OVC040
     FM250400 16017G26KT P6SM -RA BKN015 OVC025=

USA.gov is the U.S. government's official web portal to all federal, state and local government web resources and services.